Time;durP1;ratioP1;P1;durP2;ratioP2;P2;SDS_P1;SDS_P2;PMS_P1;PMS_P2;Temp;Humidity;BMP_temperature;BMP_pressure;BME280_temperature;BME280_humidity;BME280_pressure;Samples;Min_cycle;Max_cycle;Signal;HPM_P1;HPM_P2
2023/05/31 00:01:57;;;;;;;;;;;23.30;39.40;;;;;;1555618;74;740;-67
2023/05/31 00:03:59;;;;;;;;;;;23.30;39.40;;;;;;1557118;74;1942;-66
2023/05/31 00:06:01;;;;;;;;;;;23.30;39.40;;;;;;1543840;74;811;-67
2023/05/31 00:08:03;;;;;;;;;;;23.30;39.30;;;;;;1539882;75;1160;-66
2023/05/31 00:10:05;;;;;;;;;;;23.30;39.20;;;;;;1536181;74;770;-66
2023/05/31 00:12:08;;;;;;;;;;;23.30;39.20;;;;;;1564471;75;1424;-67
2023/05/31 00:14:10;;;;;;;;;;;23.30;39.20;;;;;;1558649;74;722;-68
2023/05/31 00:16:13;;;;;;;;;;;23.30;39.20;;;;;;1548692;74;669;-66
2023/05/31 00:18:15;;;;;;;;;;;23.30;39.20;;;;;;1541376;75;1160;-67
2023/05/31 00:20:17;;;;;;;;;;;23.30;39.30;;;;;;1544720;75;758;-67
2023/05/31 00:22:19;;;;;;;;;;;23.30;39.30;;;;;;1539420;75;767;-66
2023/05/31 00:24:21;;;;;;;;;;;23.30;39.30;;;;;;1549276;74;1924;-66
2023/05/31 00:26:23;;;;;;;;;;;23.30;39.30;;;;;;1554576;75;1658;-66
2023/05/31 00:28:25;;;;;;;;;;;23.30;39.30;;;;;;1546181;74;1108;-66
2023/05/31 00:30:27;;;;;;;;;;;23.40;39.30;;;;;;1541421;74;803;-67
2023/05/31 00:32:29;;;;;;;;;;;23.30;39.20;;;;;;1538447;75;773;-67
2023/05/31 00:34:31;;;;;;;;;;;23.30;39.30;;;;;;1532458;74;718;-66
2023/05/31 00:36:33;;;;;;;;;;;23.30;39.20;;;;;;1545768;74;755;-66
2023/05/31 00:38:35;;;;;;;;;;;23.30;39.20;;;;;;1541158;74;1114;-66
2023/05/31 00:40:37;;;;;;;;;;;23.40;39.30;;;;;;1553463;75;1643;-66
2023/05/31 00:42:38;;;;;;;;;;;23.30;39.20;;;;;;1548852;74;677;-66
2023/05/31 00:44:40;;;;;;;;;;;23.30;39.20;;;;;;1547565;74;1943;-66
2023/05/31 00:46:42;;;;;;;;;;;23.30;39.30;;;;;;1568046;73;1146;-66
2023/05/31 00:48:45;;;;;;;;;;;23.30;39.30;;;;;;1570043;73;738;-66
2023/05/31 00:50:48;;;;;;;;;;;23.30;39.30;;;;;;1573845;73;748;-66
2023/05/31 00:52:50;;;;;;;;;;;23.30;39.30;;;;;;1582640;74;759;-66
2023/05/31 00:54:52;;;;;;;;;;;23.40;39.30;;;;;;1593704;73;1289;-66
2023/05/31 00:56:54;;;;;;;;;;;23.40;39.20;;;;;;1571533;73;1149;-68
2023/05/31 00:58:58;;;;;;;;;;;23.30;39.20;;;;;;1590405;74;614;-67
2023/05/31 01:01:00;;;;;;;;;;;23.30;39.30;;;;;;1581660;73;814;-67
2023/05/31 01:03:02;;;;;;;;;;;23.30;39.20;;;;;;1573910;73;670;-67
2023/05/31 01:05:05;;;;;;;;;;;23.30;39.20;;;;;;1588250;73;1921;-66
2023/05/31 01:07:08;;;;;;;;;;;23.40;39.20;;;;;;1579376;74;1544;-68
2023/05/31 01:09:10;;;;;;;;;;;23.30;39.20;;;;;;1572997;74;751;-68
2023/05/31 01:11:16;;;;;;;;;;;23.30;39.40;;;;;;1575962;73;736;-67
2023/05/31 01:13:22;;;;;;;;;;;23.30;39.30;;;;;;1553466;74;1686;-68
2023/05/31 01:15:24;;;;;;;;;;;23.30;39.20;;;;;;1571607;73;750;-67
2023/05/31 01:17:44;;;;;;;;;;;23.40;39.10;;;;;;1575741;73;1165;-67
2023/05/31 01:19:49;;;;;;;;;;;23.30;39.20;;;;;;1576533;73;768;-67
2023/05/31 01:21:57;;;;;;;;;;;23.30;39.10;;;;;;1579356;74;1541;-67
2023/05/31 01:24:00;;;;;;;;;;;23.40;39.10;;;;;;1531693;73;1105;-67
2023/05/31 01:26:22;;;;;;;;;;;23.30;39.10;;;;;;1572057;73;1924;-67
2023/05/31 01:28:24;;;;;;;;;;;23.30;39.10;;;;;;1581349;73;1125;-68
2023/05/31 01:30:26;;;;;;;;;;;23.30;38.90;;;;;;1586026;73;810;-67
2023/05/31 01:32:27;;;;;;;;;;;23.30;39.00;;;;;;1574771;73;812;-67
2023/05/31 01:34:29;;;;;;;;;;;23.30;39.00;;;;;;1586571;73;758;-67
2023/05/31 01:36:32;;;;;;;;;;;23.40;39.00;;;;;;1594119;73;1323;-67
2023/05/31 01:38:34;;;;;;;;;;;23.40;38.90;;;;;;1575339;73;1106;-67
2023/05/31 01:40:36;;;;;;;;;;;23.40;38.90;;;;;;1582035;73;712;-67
2023/05/31 01:42:37;;;;;;;;;;;23.30;38.90;;;;;;1576128;73;806;-67
2023/05/31 01:44:40;;;;;;;;;;;23.30;38.90;;;;;;1574915;73;1940;-66
2023/05/31 01:46:42;;;;;;;;;;;23.30;38.90;;;;;;1558476;73;1059;-68
2023/05/31 01:48:43;;;;;;;;;;;23.30;38.90;;;;;;1545856;74;751;-68
2023/05/31 01:50:45;;;;;;;;;;;23.30;39.00;;;;;;1546832;75;1508;-68
2023/05/31 01:52:47;;;;;;;;;;;23.30;38.90;;;;;;1550472;75;737;-67
2023/05/31 01:54:49;;;;;;;;;;;23.30;38.90;;;;;;1556674;75;673;-67
2023/05/31 01:56:51;;;;;;;;;;;23.30;38.90;;;;;;1546810;74;1156;-67
2023/05/31 01:58:53;;;;;;;;;;;23.30;38.80;;;;;;1537153;74;712;-67
2023/05/31 02:00:55;;;;;;;;;;;23.30;38.70;;;;;;1536390;74;720;-67
2023/05/31 02:02:57;;;;;;;;;;;23.30;38.60;;;;;;1542426;74;675;-68
2023/05/31 02:05:12;;;;;;;;;;;23.30;38.60;;;;;;1533537;74;1928;-67
2023/05/31 02:07:09;;;;;;;;;;;23.30;38.70;;;;;;1536431;74;1594;-68
2023/05/31 02:09:11;;;;;;;;;;;23.30;38.80;;;;;;1545007;74;777;-70
2023/05/31 02:11:13;;;;;;;;;;;23.30;38.80;;;;;;1557052;74;769;-68
2023/05/31 02:13:15;;;;;;;;;;;23.30;38.70;;;;;;1536710;74;833;-72
2023/05/31 02:15:19;;;;;;;;;;;23.30;38.70;;;;;;1540322;75;707;-67
2023/05/31 02:17:23;;;;;;;;;;;23.40;38.60;;;;;;1540991;75;1749;-71
2023/05/31 02:19:25;;;;;;;;;;;23.30;38.60;;;;;;1536928;74;1389;-70
2023/05/31 02:21:27;;;;;;;;;;;23.40;38.60;;;;;;1532917;75;963;-67
2023/05/31 02:23:29;;;;;;;;;;;23.30;38.60;;;;;;1544356;75;707;-67
2023/05/31 02:25:31;;;;;;;;;;;23.30;38.60;;;;;;1551011;74;1909;-67
2023/05/31 02:27:33;;;;;;;;;;;23.30;38.60;;;;;;1543438;74;1114;-68
2023/05/31 02:29:35;;;;;;;;;;;23.30;38.60;;;;;;1540320;74;705;-69
2023/05/31 02:31:37;;;;;;;;;;;23.40;38.50;;;;;;1553970;74;1574;-68
2023/05/31 02:33:41;;;;;;;;;;;23.40;38.60;;;;;;1533361;74;711;-70
2023/05/31 02:35:43;;;;;;;;;;;23.40;38.60;;;;;;1536016;75;735;-68
2023/05/31 02:37:46;;;;;;;;;;;23.30;38.60;;;;;;1549727;74;1142;-67
2023/05/31 02:39:48;;;;;;;;;;;23.30;38.70;;;;;;1551537;74;816;-66
2023/05/31 02:41:50;;;;;;;;;;;23.30;38.70;;;;;;1561982;75;807;-66
2023/05/31 02:43:52;;;;;;;;;;;23.30;38.60;;;;;;1550347;74;703;-66
2023/05/31 02:45:54;;;;;;;;;;;23.30;38.60;;;;;;1539133;74;1954;-66
2023/05/31 02:47:56;;;;;;;;;;;23.30;38.60;;;;;;1559283;74;1125;-65
2023/05/31 02:49:58;;;;;;;;;;;23.30;38.60;;;;;;1547225;74;737;-66
2023/05/31 02:52:00;;;;;;;;;;;23.30;38.60;;;;;;1561576;74;803;-65
2023/05/31 02:54:02;;;;;;;;;;;23.30;38.60;;;;;;1558976;74;772;-66
2023/05/31 02:56:04;;;;;;;;;;;23.30;38.50;;;;;;1561879;74;752;-66
2023/05/31 02:58:06;;;;;;;;;;;23.30;38.50;;;;;;1560816;74;1152;-65
2023/05/31 03:00:13;;;;;;;;;;;23.30;38.40;;;;;;1562437;74;1586;-66
2023/05/31 03:02:14;;;;;;;;;;;23.40;38.50;;;;;;1545531;74;897;-65
2023/05/31 03:04:16;;;;;;;;;;;23.30;38.40;;;;;;1569496;74;658;-66
2023/05/31 03:06:19;;;;;;;;;;;23.30;38.40;;;;;;1558585;74;1938;-66
2023/05/31 03:08:21;;;;;;;;;;;23.30;38.40;;;;;;1555426;74;1149;-66
2023/05/31 03:10:22;;;;;;;;;;;23.30;38.40;;;;;;1550269;74;754;-66
2023/05/31 03:12:24;;;;;;;;;;;23.30;38.60;;;;;;1551468;74;741;-66
2023/05/31 03:14:26;;;;;;;;;;;23.30;38.70;;;;;;1570626;74;1565;-66
2023/05/31 03:16:29;;;;;;;;;;;23.30;38.60;;;;;;1554435;74;703;-66
2023/05/31 03:18:31;;;;;;;;;;;23.20;38.50;;;;;;1550752;74;1145;-66
2023/05/31 03:20:33;;;;;;;;;;;23.20;38.50;;;;;;1553480;74;684;-66
2023/05/31 03:22:35;;;;;;;;;;;23.30;38.50;;;;;;1550357;74;754;-65
2023/05/31 03:24:37;;;;;;;;;;;23.30;38.60;;;;;;1559594;74;725;-66
2023/05/31 03:26:40;;;;;;;;;;;23.20;38.40;;;;;;1557316;74;2076;-67
2023/05/31 03:28:42;;;;;;;;;;;23.30;38.50;;;;;;1555661;74;1548;-65
2023/05/31 03:30:43;;;;;;;;;;;23.30;38.50;;;;;;1546224;74;636;-66
2023/05/31 03:32:45;;;;;;;;;;;23.30;38.60;;;;;;1556440;74;693;-67
2023/05/31 03:34:47;;;;;;;;;;;23.30;38.60;;;;;;1555359;74;788;-66
2023/05/31 03:36:50;;;;;;;;;;;23.20;38.40;;;;;;1565918;74;1147;-66
2023/05/31 03:38:52;;;;;;;;;;;23.20;38.40;;;;;;1558276;74;742;-66
2023/05/31 03:40:54;;;;;;;;;;;23.30;38.60;;;;;;1559942;74;743;-65
2023/05/31 03:42:56;;;;;;;;;;;23.30;38.50;;;;;;1558735;74;1530;-65
2023/05/31 03:44:58;;;;;;;;;;;23.30;38.50;;;;;;1563069;74;791;-66
2023/05/31 03:47:00;;;;;;;;;;;23.20;38.50;;;;;;1579238;74;1922;-67
2023/05/31 03:49:03;;;;;;;;;;;23.30;38.50;;;;;;1567821;75;683;-68
2023/05/31 03:51:05;;;;;;;;;;;23.20;38.50;;;;;;1550871;75;672;-66
2023/05/31 03:53:06;;;;;;;;;;;23.20;38.40;;;;;;1569926;75;805;-66
2023/05/31 03:55:08;;;;;;;;;;;23.20;38.40;;;;;;1550267;75;733;-67
2023/05/31 03:57:10;;;;;;;;;;;23.20;38.50;;;;;;1553537;75;1545;-67
2023/05/31 03:59:12;;;;;;;;;;;23.20;38.40;;;;;;1547286;74;749;-67
2023/05/31 04:01:14;;;;;;;;;;;23.20;38.50;;;;;;1551832;74;747;-66
2023/05/31 04:03:16;;;;;;;;;;;23.20;38.50;;;;;;1556016;75;722;-68
2023/05/31 04:05:18;;;;;;;;;;;23.20;38.50;;;;;;1563674;75;1942;-66
2023/05/31 04:07:20;;;;;;;;;;;23.20;38.50;;;;;;1552910;75;1125;-66
2023/05/31 04:09:23;;;;;;;;;;;23.20;38.40;;;;;;1566846;75;767;-66
2023/05/31 04:11:25;;;;;;;;;;;23.20;38.40;;;;;;1565512;74;1449;-65
2023/05/31 04:13:27;;;;;;;;;;;23.20;38.40;;;;;;1557737;75;702;-65
2023/05/31 04:15:29;;;;;;;;;;;23.20;38.40;;;;;;1556793;74;774;-65
2023/05/31 04:17:31;;;;;;;;;;;23.20;38.40;;;;;;1558704;75;1144;-66
2023/05/31 04:19:33;;;;;;;;;;;23.30;38.50;;;;;;1543660;75;779;-66
2023/05/31 04:21:35;;;;;;;;;;;23.20;38.40;;;;;;1574977;75;776;-65
2023/05/31 04:23:37;;;;;;;;;;;23.20;38.40;;;;;;1566299;75;704;-65
2023/05/31 04:25:39;;;;;;;;;;;23.20;38.40;;;;;;1560951;75;1936;-66
2023/05/31 04:27:41;;;;;;;;;;;23.20;38.40;;;;;;1554171;75;1138;-65
2023/05/31 04:29:43;;;;;;;;;;;23.20;38.40;;;;;;1555281;75;772;-66
2023/05/31 04:31:44;;;;;;;;;;;23.20;38.40;;;;;;1556512;75;704;-66
2023/05/31 04:33:46;;;;;;;;;;;23.20;38.40;;;;;;1564651;75;688;-67
2023/05/31 04:35:50;;;;;;;;;;;23.20;38.30;;;;;;1560617;75;737;-66
2023/05/31 04:37:52;;;;;;;;;;;23.20;38.40;;;;;;1570707;75;1173;-67
2023/05/31 04:39:54;;;;;;;;;;;23.20;38.30;;;;;;1558943;75;1612;-66
2023/05/31 04:41:56;;;;;;;;;;;23.20;38.20;;;;;;1560914;75;856;-68
2023/05/31 04:43:58;;;;;;;;;;;23.20;38.20;;;;;;1556342;74;776;-66
2023/05/31 04:46:00;;;;;;;;;;;23.20;38.10;;;;;;1558948;75;1938;-66
2023/05/31 04:48:02;;;;;;;;;;;23.20;38.20;;;;;;1560450;74;1144;-66
2023/05/31 04:50:04;;;;;;;;;;;23.20;38.10;;;;;;1535673;74;776;-67
2023/05/31 04:52:06;;;;;;;;;;;23.20;38.00;;;;;;1547809;75;1566;-67
2023/05/31 04:54:08;;;;;;;;;;;23.20;38.10;;;;;;1555643;74;735;-67
2023/05/31 04:56:12;;;;;;;;;;;23.20;38.00;;;;;;1554424;74;760;-68
2023/05/31 04:58:14;;;;;;;;;;;23.20;38.10;;;;;;1548915;75;1182;-66
2023/05/31 05:00:16;;;;;;;;;;;23.20;38.10;;;;;;1537902;74;634;-66
2023/05/31 05:02:18;;;;;;;;;;;23.20;38.00;;;;;;1537359;74;725;-66
2023/05/31 05:04:20;;;;;;;;;;;23.20;37.80;;;;;;1545475;74;799;-66
2023/05/31 05:06:22;;;;;;;;;;;23.20;37.80;;;;;;1555351;74;1926;-66
2023/05/31 05:08:24;;;;;;;;;;;23.30;37.70;;;;;;1535032;75;1154;-66
2023/05/31 05:10:26;;;;;;;;;;;23.20;37.80;;;;;;1553334;74;702;-65
2023/05/31 05:12:28;;;;;;;;;;;23.20;37.70;;;;;;1537305;74;732;-67
2023/05/31 05:14:31;;;;;;;;;;;23.20;38.00;;;;;;1568318;74;776;-66
2023/05/31 05:16:33;;;;;;;;;;;23.10;38.10;;;;;;1538646;75;696;-66
2023/05/31 05:18:35;;;;;;;;;;;23.20;37.90;;;;;;1559719;74;1116;-66
2023/05/31 05:20:37;;;;;;;;;;;23.20;37.90;;;;;;1543151;75;1419;-66
2023/05/31 05:22:39;;;;;;;;;;;23.20;38.00;;;;;;1545368;75;682;-67
2023/05/31 05:24:40;;;;;;;;;;;23.20;37.80;;;;;;1536001;75;776;-65
2023/05/31 05:26:42;;;;;;;;;;;23.20;37.80;;;;;;1548746;74;1951;-67
2023/05/31 05:28:44;;;;;;;;;;;23.20;37.70;;;;;;1545020;74;713;-66
2023/05/31 05:30:46;;;;;;;;;;;23.20;37.60;;;;;;1550895;74;761;-67
2023/05/31 05:32:48;;;;;;;;;;;23.20;37.70;;;;;;1543600;74;686;-66
2023/05/31 05:34:50;;;;;;;;;;;23.20;37.60;;;;;;1552570;75;1502;-66
2023/05/31 05:36:52;;;;;;;;;;;23.20;37.60;;;;;;1549374;74;1165;-65
2023/05/31 05:38:55;;;;;;;;;;;23.20;37.60;;;;;;1549400;74;762;-65
2023/05/31 05:40:57;;;;;;;;;;;23.20;37.60;;;;;;1542618;74;717;-63
2023/05/31 05:42:59;;;;;;;;;;;23.30;37.80;;;;;;1565700;74;719;-67
2023/05/31 05:45:01;;;;;;;;;;;23.30;37.80;;;;;;1553781;74;739;-65
2023/05/31 05:47:03;;;;;;;;;;;23.30;37.80;;;;;;1555726;75;1935;-67
2023/05/31 05:49:06;;;;;;;;;;;23.30;37.70;;;;;;1533503;74;1438;-66
2023/05/31 05:51:08;;;;;;;;;;;23.30;37.70;;;;;;1539577;75;779;-66
2023/05/31 05:53:10;;;;;;;;;;;23.30;37.70;;;;;;1543574;75;770;-65
2023/05/31 05:55:11;;;;;;;;;;;23.30;36.90;;;;;;1541700;74;746;-67
2023/05/31 05:57:14;;;;;;;;;;;23.30;37.30;;;;;;1543034;74;1158;-66
2023/05/31 05:59:16;;;;;;;;;;;23.30;37.30;;;;;;1548748;74;705;-65
2023/05/31 06:01:23;;;;;;;;;;;23.30;37.30;;;;;;1541147;74;1074;-65
2023/05/31 06:03:23;;;;;;;;;;;23.30;37.30;;;;;;1559198;74;1631;-65
2023/05/31 06:05:26;;;;;;;;;;;23.40;37.40;;;;;;1541431;74;1093;-65
2023/05/31 06:07:29;;;;;;;;;;;23.30;37.30;;;;;;1545205;75;1939;-65
2023/05/31 06:09:31;;;;;;;;;;;23.40;37.30;;;;;;1547040;74;1143;-65
2023/05/31 06:11:33;;;;;;;;;;;23.30;37.30;;;;;;1539730;74;1304;-65
2023/05/31 06:13:35;;;;;;;;;;;23.40;37.40;;;;;;1583295;74;1509;-64
2023/05/31 06:15:37;;;;;;;;;;;23.40;37.40;;;;;;1586163;73;979;-65
2023/05/31 06:17:39;;;;;;;;;;;23.30;37.40;;;;;;1578996;73;1453;-64
2023/05/31 06:19:41;;;;;;;;;;;23.30;37.40;;;;;;1582411;73;1273;-64
2023/05/31 06:21:43;;;;;;;;;;;23.30;37.50;;;;;;1582463;73;1479;-64
2023/05/31 06:23:45;;;;;;;;;;;23.40;37.40;;;;;;1582811;73;1315;-65
2023/05/31 06:25:46;;;;;;;;;;;23.40;37.30;;;;;;1575243;73;1320;-65
2023/05/31 06:27:48;;;;;;;;;;;23.30;37.30;;;;;;1571565;74;1928;-65
2023/05/31 06:29:57;;;;;;;;;;;23.40;37.10;;;;;;1539891;74;1333;-65
2023/05/31 06:31:55;;;;;;;;;;;23.40;37.30;;;;;;1531885;75;1654;-64
2023/05/31 06:33:57;;;;;;;;;;;23.30;37.30;;;;;;1564744;74;1490;-65
2023/05/31 06:35:59;;;;;;;;;;;23.30;37.30;;;;;;1561377;75;1404;-64
2023/05/31 06:38:03;;;;;;;;;;;23.40;37.30;;;;;;1555532;74;1172;-65
2023/05/31 06:40:06;;;;;;;;;;;23.30;37.30;;;;;;1569687;74;1045;-64
2023/05/31 06:42:09;;;;;;;;;;;23.40;37.30;;;;;;1559189;74;1532;-63
2023/05/31 06:44:11;;;;;;;;;;;23.30;37.30;;;;;;1559623;74;1415;-66
2023/05/31 06:46:13;;;;;;;;;;;23.30;37.30;;;;;;1552446;74;1947;-66
2023/05/31 06:48:15;;;;;;;;;;;23.30;37.30;;;;;;1545212;74;1543;-66
2023/05/31 06:50:16;;;;;;;;;;;23.40;37.10;;;;;;1565876;74;1369;-66
2023/05/31 06:52:18;;;;;;;;;;;23.30;37.30;;;;;;1555963;74;1247;-66
2023/05/31 06:54:20;;;;;;;;;;;23.40;37.20;;;;;;1557786;74;1513;-67
2023/05/31 06:56:22;;;;;;;;;;;23.30;37.30;;;;;;1567048;75;1602;-64
2023/05/31 06:58:24;;;;;;;;;;;23.40;37.10;;;;;;1569111;75;1232;-64
2023/05/31 07:00:26;;;;;;;;;;;23.30;37.00;;;;;;1564208;75;1524;-62
2023/05/31 07:02:28;;;;;;;;;;;23.40;37.00;;;;;;1564770;75;1271;-64
2023/05/31 07:04:30;;;;;;;;;;;23.30;37.10;;;;;;1562827;75;1228;-64
2023/05/31 07:06:32;;;;;;;;;;;23.30;37.20;;;;;;1568363;75;1947;-63
2023/05/31 07:08:34;;;;;;;;;;;23.30;37.10;;;;;;1561597;75;1261;-64
2023/05/31 07:10:36;;;;;;;;;;;23.40;36.70;;;;;;1560270;75;1094;-63
2023/05/31 07:12:38;;;;;;;;;;;23.30;37.00;;;;;;1569400;75;1109;-63
2023/05/31 07:14:40;;;;;;;;;;;23.50;37.10;;;;;;1568967;75;1722;-64
2023/05/31 07:16:45;;;;;;;;;;;23.40;37.00;;;;;;1547832;74;1495;-63
2023/05/31 07:18:47;;;;;;;;;;;23.50;37.10;;;;;;1553251;74;1358;-65
2023/05/31 07:20:49;;;;;;;;;;;23.40;36.70;;;;;;1545079;74;1356;-65
2023/05/31 07:22:51;;;;;;;;;;;23.30;36.80;;;;;;1554115;74;1317;-65
2023/05/31 07:24:53;;;;;;;;;;;23.40;36.80;;;;;;1569633;74;1104;-65
2023/05/31 07:26:55;;;;;;;;;;;23.40;36.80;;;;;;1547252;74;1946;-65
2023/05/31 07:28:57;;;;;;;;;;;23.40;36.60;;;;;;1553465;74;1327;-65
2023/05/31 07:30:59;;;;;;;;;;;23.40;36.30;;;;;;1562098;74;1403;-65
2023/05/31 07:33:01;;;;;;;;;;;23.40;36.50;;;;;;1549397;74;1348;-65
2023/05/31 07:35:03;;;;;;;;;;;23.40;36.50;;;;;;1559110;74;1363;-65
2023/05/31 07:37:05;;;;;;;;;;;23.50;36.30;;;;;;1556380;74;1122;-65
2023/05/31 07:39:08;;;;;;;;;;;23.40;36.40;;;;;;1558598;75;1528;-65
2023/05/31 07:41:10;;;;;;;;;;;23.40;36.30;;;;;;1553540;74;1305;-65
2023/05/31 07:43:13;;;;;;;;;;;23.40;36.20;;;;;;1560780;75;1311;-66
2023/05/31 07:45:15;;;;;;;;;;;23.10;36.00;;;;;;1550760;74;1239;-65
2023/05/31 07:47:17;;;;;;;;;;;23.40;36.00;;;;;;1558923;75;1948;-65
2023/05/31 07:49:19;;;;;;;;;;;23.40;36.00;;;;;;1562068;75;1388;-65
2023/05/31 07:51:21;;;;;;;;;;;23.50;36.00;;;;;;1563966;75;1411;-63
2023/05/31 07:53:23;;;;;;;;;;;23.50;36.00;;;;;;1568797;75;1222;-64
2023/05/31 07:55:25;;;;;;;;;;;23.50;36.00;;;;;;1561261;75;1439;-64
2023/05/31 07:57:27;;;;;;;;;;;23.40;35.90;;;;;;1560104;75;1271;-64
2023/05/31 07:59:29;;;;;;;;;;;23.40;36.00;;;;;;1553026;75;1531;-63
2023/05/31 08:01:31;;;;;;;;;;;23.40;36.00;;;;;;1557444;75;1343;-65
2023/05/31 08:03:33;;;;;;;;;;;23.50;36.30;;;;;;1557141;75;1102;-65
2023/05/31 08:05:35;;;;;;;;;;;23.50;36.20;;;;;;1558965;75;1304;-66
2023/05/31 08:07:37;;;;;;;;;;;23.50;36.10;;;;;;1576761;74;1928;-66
2023/05/31 08:09:39;;;;;;;;;;;23.50;36.10;;;;;;1562337;74;1494;-65
2023/05/31 08:11:41;;;;;;;;;;;23.50;36.10;;;;;;1564252;75;1276;-65
2023/05/31 08:13:43;;;;;;;;;;;23.50;35.80;;;;;;1569678;75;1263;-64
2023/05/31 08:15:44;;;;;;;;;;;23.40;35.80;;;;;;1563747;75;1251;-65
2023/05/31 08:17:47;;;;;;;;;;;23.50;36.20;;;;;;1567761;75;1295;-65
2023/05/31 08:19:50;;;;;;;;;;;23.50;36.30;;;;;;1565769;75;1049;-65
2023/05/31 08:21:52;;;;;;;;;;;23.50;36.30;;;;;;1559432;75;1518;-66
2023/05/31 08:23:54;;;;;;;;;;;23.50;36.30;;;;;;1567602;75;1490;-65
2023/05/31 08:25:56;;;;;;;;;;;23.50;36.50;;;;;;1573609;75;1307;-66
2023/05/31 08:27:58;;;;;;;;;;;23.50;36.50;;;;;;1557665;75;1949;-66
2023/05/31 08:29:59;;;;;;;;;;;23.40;36.30;;;;;;1567150;75;1285;-65
2023/05/31 08:32:01;;;;;;;;;;;23.30;35.50;;;;;;1569200;74;1480;-65
2023/05/31 08:34:03;;;;;;;;;;;23.20;35.80;;;;;;1560649;74;1292;-66
2023/05/31 08:36:05;;;;;;;;;;;23.20;35.60;;;;;;1551227;74;1290;-66
2023/05/31 08:38:07;;;;;;;;;;;23.20;35.20;;;;;;1556527;74;1610;-66
2023/05/31 08:40:09;;;;;;;;;;;23.10;35.70;;;;;;1570207;75;1124;-66
2023/05/31 08:42:13;;;;;;;;;;;23.10;36.50;;;;;;1558840;75;1247;-66
2023/05/31 08:44:14;;;;;;;;;;;23.10;35.50;;;;;;1563881;75;1229;-66
2023/05/31 08:46:16;;;;;;;;;;;23.10;35.70;;;;;;1567573;75;1128;-66
2023/05/31 08:48:20;;;;;;;;;;;23.10;35.80;;;;;;1561925;75;1958;-66
2023/05/31 08:50:22;;;;;;;;;;;23.10;36.30;;;;;;1557753;75;1284;-66
2023/05/31 08:52:23;;;;;;;;;;;23.20;35.70;;;;;;1567620;75;1580;-66
2023/05/31 08:54:25;;;;;;;;;;;23.10;35.10;;;;;;1567660;75;779;-66
2023/05/31 08:56:28;;;;;;;;;;;23.10;35.60;;;;;;1563775;75;668;-66
2023/05/31 08:58:29;;;;;;;;;;;23.10;35.60;;;;;;1572426;75;1106;-66
2023/05/31 09:00:32;;;;;;;;;;;23.00;35.80;;;;;;1557405;75;812;-66
2023/05/31 09:02:34;;;;;;;;;;;23.00;35.50;;;;;;1555043;75;727;-66
2023/05/31 09:04:35;;;;;;;;;;;23.00;35.60;;;;;;1557356;75;771;-66
2023/05/31 09:06:37;;;;;;;;;;;23.10;36.00;;;;;;1562460;75;1530;-67
2023/05/31 09:08:40;;;;;;;;;;;23.00;35.00;;;;;;1572374;75;1947;-66
2023/05/31 09:10:41;;;;;;;;;;;23.10;35.00;;;;;;1569482;75;743;-66
2023/05/31 09:12:43;;;;;;;;;;;23.10;35.70;;;;;;1565482;75;720;-67
2023/05/31 09:14:45;;;;;;;;;;;23.00;35.60;;;;;;1567230;75;741;-66
2023/05/31 09:16:48;;;;;;;;;;;23.00;35.20;;;;;;1563948;75;1137;-66
2023/05/31 09:18:51;;;;;;;;;;;23.00;35.30;;;;;;1567070;75;713;-66
2023/05/31 09:20:54;;;;;;;;;;;23.00;35.30;;;;;;1535811;75;1617;-67
2023/05/31 09:22:55;;;;;;;;;;;23.10;35.60;;;;;;1566412;75;874;-66
2023/05/31 09:24:58;;;;;;;;;;;23.10;36.10;;;;;;1557036;75;776;-66
2023/05/31 09:27:00;;;;;;;;;;;23.10;37.30;;;;;;1555248;75;1140;-66
2023/05/31 09:29:02;;;;;;;;;;;23.20;37.10;;;;;;1577238;75;1910;-66
2023/05/31 09:31:08;;;;;;;;;;;23.30;37.10;;;;;;1545977;76;812;-65
2023/05/31 09:33:10;;;;;;;;;;;23.30;38.00;;;;;;1563043;75;687;-65
2023/05/31 09:35:16;;;;;;;;;;;23.30;37.70;;;;;;1561155;75;1665;-65
2023/05/31 09:37:24;;;;;;;;;;;23.30;38.10;;;;;;1561620;75;1176;-65
2023/05/31 09:39:26;;;;;;;;;;;23.30;37.60;;;;;;1563269;75;680;-65
2023/05/31 09:41:28;;;;;;;;;;;23.50;37.10;;;;;;1559413;75;757;-64
2023/05/31 09:43:30;;;;;;;;;;;23.40;36.90;;;;;;1566811;75;749;-65
2023/05/31 09:45:32;;;;;;;;;;;23.30;37.60;;;;;;1562555;74;1036;-64
2023/05/31 09:47:33;;;;;;;;;;;23.40;37.30;;;;;;1557595;74;1921;-64
2023/05/31 09:49:35;;;;;;;;;;;23.50;37.60;;;;;;1536045;76;1182;-64
2023/05/31 09:51:37;;;;;;;;;;;23.50;37.20;;;;;;1510558;77;783;-64
2023/05/31 09:53:43;;;;;;;;;;;23.50;37.10;;;;;;1504974;77;773;-64
2023/05/31 09:55:45;;;;;;;;;;;23.60;37.40;;;;;;1510924;77;779;-64
2023/05/31 09:57:48;;;;;;;;;;;23.60;37.00;;;;;;1503642;77;1080;-65
2023/05/31 09:59:52;;;;;;;;;;;23.60;37.00;;;;;;1507300;77;727;-64
2023/05/31 10:01:53;;;;;;;;;;;23.60;37.10;;;;;;1502541;77;1889;-65
2023/05/31 10:03:55;;;;;;;;;;;23.50;37.10;;;;;;1516311;77;765;-65
2023/05/31 10:05:57;;;;;;;;;;;23.50;36.90;;;;;;1503679;77;784;-65
2023/05/31 10:07:59;;;;;;;;;;;23.40;36.70;;;;;;1506147;77;1945;-67
2023/05/31 10:10:01;;;;;;;;;;;23.50;36.90;;;;;;1516189;77;944;-67
2023/05/31 10:12:03;;;;;;;;;;;23.60;37.00;;;;;;1546376;75;796;-67
2023/05/31 10:14:09;;;;;;;;;;;23.60;36.90;;;;;;1532875;75;762;-67
2023/05/31 10:16:11;;;;;;;;;;;23.60;36.20;;;;;;1540318;75;1493;-66
2023/05/31 10:18:16;;;;;;;;;;;23.60;36.20;;;;;;1552727;75;1110;-67
2023/05/31 10:20:18;;;;;;;;;;;23.50;36.70;;;;;;1543873;75;760;-66
2023/05/31 10:22:20;;;;;;;;;;;23.50;36.30;;;;;;1543011;75;739;-67
2023/05/31 10:24:23;;;;;;;;;;;23.60;36.80;;;;;;1531388;75;757;-66
2023/05/31 10:26:27;;;;;;;;;;;23.60;36.80;;;;;;1545842;75;706;-66
2023/05/31 10:28:29;;;;;;;;;;;23.60;36.40;;;;;;1538615;75;1944;-66
2023/05/31 10:30:31;;;;;;;;;;;23.60;36.60;;;;;;1527361;76;1373;-65
2023/05/31 10:32:34;;;;;;;;;;;23.60;36.70;;;;;;1531557;75;1121;-65
2023/05/31 10:34:35;;;;;;;;;;;23.70;36.20;;;;;;1547682;75;1369;-65
2023/05/31 10:36:38;;;;;;;;;;;23.60;36.20;;;;;;1538558;75;1383;-66
2023/05/31 10:38:41;;;;;;;;;;;23.60;36.40;;;;;;1544213;75;1494;-65
2023/05/31 10:40:49;;;;;;;;;;;23.60;36.30;;;;;;1553806;76;1347;-65
2023/05/31 10:43:09;;;;;;;;;;;23.70;36.30;;;;;;1556221;76;1125;-65
2023/05/31 10:45:12;;;;;;;;;;;23.70;36.30;;;;;;1566239;75;1590;-65
2023/05/31 10:47:14;;;;;;;;;;;23.60;35.40;;;;;;1559230;75;1277;-65
2023/05/31 10:49:16;;;;;;;;;;;23.60;36.00;;;;;;1559646;75;1935;-65
2023/05/31 10:51:18;;;;;;;;;;;23.60;36.00;;;;;;1553170;75;1250;-65
2023/05/31 10:53:20;;;;;;;;;;;23.70;35.90;;;;;;1566085;75;1264;-65
2023/05/31 10:55:22;;;;;;;;;;;23.70;35.90;;;;;;1566634;75;1274;-65
2023/05/31 10:57:24;;;;;;;;;;;23.70;35.80;;;;;;1555474;75;1087;-65
2023/05/31 10:59:26;;;;;;;;;;;23.70;35.70;;;;;;1538166;76;1602;-65
2023/05/31 11:01:28;;;;;;;;;;;23.60;34.60;;;;;;1560729;74;1428;-65
2023/05/31 11:03:31;;;;;;;;;;;23.60;35.50;;;;;;1552268;74;1312;-65
2023/05/31 11:05:33;;;;;;;;;;;23.70;35.90;;;;;;1555076;74;1467;-65
2023/05/31 11:07:35;;;;;;;;;;;23.70;35.50;;;;;;1567018;74;1337;-65
2023/05/31 11:09:38;;;;;;;;;;;23.70;35.40;;;;;;1561791;74;1944;-66
2023/05/31 11:11:42;;;;;;;;;;;23.70;35.40;;;;;;1558878;74;1309;-65
2023/05/31 11:13:57;;;;;;;;;;;23.70;35.60;;;;;;1560889;75;1721;-65
2023/05/31 11:15:59;;;;;;;;;;;23.60;35.70;;;;;;1562754;75;1454;-65
2023/05/31 11:18:01;;;;;;;;;;;23.70;35.70;;;;;;1568741;75;1331;-65
2023/05/31 11:20:04;;;;;;;;;;;23.70;35.90;;;;;;1560817;75;1322;-65
2023/05/31 11:22:10;;;;;;;;;;;23.70;35.70;;;;;;1556341;75;1331;-65
2023/05/31 11:24:13;;;;;;;;;;;23.70;35.80;;;;;;1571148;75;1480;-65
2023/05/31 11:26:16;;;;;;;;;;;23.70;35.40;;;;;;1569452;75;1356;-65
2023/05/31 11:28:18;;;;;;;;;;;23.70;35.40;;;;;;1550013;74;1966;-65
2023/05/31 11:30:20;;;;;;;;;;;23.60;35.20;;;;;;1536250;76;1575;-65
2023/05/31 11:32:36;;;;;;;;;;;23.60;35.60;;;;;;1568890;74;1471;-65
2023/05/31 11:34:58;;;;;;;;;;;23.60;35.70;;;;;;1569782;75;1189;-66
2023/05/31 11:37:01;;;;;;;;;;;23.70;35.80;;;;;;1560656;75;1362;-66
2023/05/31 11:39:02;;;;;;;;;;;23.60;35.70;;;;;;1558936;75;1503;-66
2023/05/31 11:41:05;;;;;;;;;;;23.60;35.50;;;;;;1563604;74;1494;-66
2023/05/31 11:43:07;;;;;;;;;;;23.60;35.40;;;;;;1542699;74;1238;-66
2023/05/31 11:45:10;;;;;;;;;;;23.50;35.80;;;;;;1557030;74;1490;-66
2023/05/31 11:47:13;;;;;;;;;;;23.60;35.80;;;;;;1568970;75;1175;-66
2023/05/31 11:49:15;;;;;;;;;;;23.60;35.50;;;;;;1566964;75;1922;-66
2023/05/31 11:51:17;;;;;;;;;;;23.60;35.40;;;;;;1566048;75;1339;-66
2023/05/31 11:53:19;;;;;;;;;;;23.60;35.40;;;;;;1574523;75;1356;-66
2023/05/31 11:55:21;;;;;;;;;;;23.50;34.90;;;;;;1563070;74;1328;-66
2023/05/31 11:57:23;;;;;;;;;;;23.60;35.50;;;;;;1564515;74;1511;-67
2023/05/31 11:59:27;;;;;;;;;;;23.60;35.70;;;;;;1569452;75;1486;-67
2023/05/31 12:01:28;;;;;;;;;;;23.60;35.40;;;;;;1570885;75;1283;-66
2023/05/31 12:03:31;;;;;;;;;;;23.60;34.90;;;;;;1565961;75;1355;-67
2023/05/31 12:05:32;;;;;;;;;;;23.60;35.70;;;;;;1548525;74;1513;-66
2023/05/31 12:07:35;;;;;;;;;;;23.60;35.40;;;;;;1565425;74;1178;-67
2023/05/31 12:09:37;;;;;;;;;;;23.60;35.60;;;;;;1546978;74;1922;-66